Decoded Metar for YSDU (DUBBO in AUSTRALIA) (IATA:DBO) | Meteo·Mobile Aviation Weather
aviador You're here:

YSDU Decoded Metar

DUBBO in AUSTRALIA
Report Time2019-02-16 00:30:00
UTC Time2019-02-16 00:52:06
Flight Rules vfr VFR
Wind040° at 05 kt
W.Decomp.*RWY 05: 4.7 kt HW 1.7 kt LCW
RWY 11: 0.9 kt HW 4.9 kt LCW
W.Rank040° ranks 35
Current wind is below 040° avg. (6.0)
Visibility9999 m
Phenomena:N/A
Clouds:N/A
Expected CloudBase > 6,400 ft AGL from Temp-Dew spread
CeilingNone
Temp26°C (ISA +13)
Dew Point10°C (37% RH)
AAT24.3°C
QNH1020 hPa
Density Alt2,313 ft
Elevation902 ft
Report Wrong Elevation
Raw Report
YSDU 160030Z AUTO 04005KT 9999 // NCD 26/10 Q1020 RF00.0/000.0=

Extra information for YSDU:More info

Metar Taf Metar & Taf Last 4 Metars F.Rules Stats Wind Profile Meteogram Temp Stats Airport Information Weather charts Add Link Nearby VenuesMetar ALERT Operation Metar Decoded Social comments